sensor_id;sensor_type;location;lat;lon;timestamp;pressure;altitude;pressure_sealevel;temperature;humidity
56160;BME280;42043;46.052;13.612;2022-08-03T00:01:33;100720.06;;;21.30;100.00
56160;BME280;42043;46.052;13.612;2022-08-03T00:03:59;100719.25;;;21.58;100.00
56160;BME280;42043;46.052;13.612;2022-08-03T00:06:25;100719.53;;;21.45;100.00
56160;BME280;42043;46.052;13.612;2022-08-03T00:08:51;100720.84;;;21.71;100.00
56160;BME280;42043;46.052;13.612;2022-08-03T00:11:18;100714.59;;;22.16;100.00
56160;BME280;42043;46.052;13.612;2022-08-03T00:13:44;100718.69;;;21.56;100.00
56160;BME280;42043;46.052;13.612;2022-08-03T00:16:10;100718.94;;;21.54;100.00
56160;BME280;42043;46.052;13.612;2022-08-03T00:18:36;100720.59;;;21.03;100.00
56160;BME280;42043;46.052;13.612;2022-08-03T00:21:03;100726.22;;;21.02;100.00
56160;BME280;42043;46.052;13.612;2022-08-03T00:23:29;100723.06;;;21.91;100.00
56160;BME280;42043;46.052;13.612;2022-08-03T00:25:56;100724.56;;;21.53;100.00
56160;BME280;42043;46.052;13.612;2022-08-03T00:28:22;100711.84;;;21.65;100.00
56160;BME280;42043;46.052;13.612;2022-08-03T00:30:48;100717.78;;;22.30;98.90
56160;BME280;42043;46.052;13.612;2022-08-03T00:33:14;100716.84;;;21.45;100.00
56160;BME280;42043;46.052;13.612;2022-08-03T00:35:40;100714.56;;;21.99;100.00
56160;BME280;42043;46.052;13.612;2022-08-03T00:38:06;100724.28;;;21.66;100.00
56160;BME280;42043;46.052;13.612;2022-08-03T00:40:33;100721.75;;;21.19;100.00
56160;BME280;42043;46.052;13.612;2022-08-03T00:43:01;100723.19;;;20.98;100.00
56160;BME280;42043;46.052;13.612;2022-08-03T00:45:30;100718.59;;;21.10;100.00
56160;BME280;42043;46.052;13.612;2022-08-03T00:47:57;100718.63;;;20.99;100.00
56160;BME280;42043;46.052;13.612;2022-08-03T00:50:26;100707.97;;;21.44;100.00
56160;BME280;42043;46.052;13.612;2022-08-03T00:52:55;100716.44;;;21.65;100.00
56160;BME280;42043;46.052;13.612;2022-08-03T00:55:22;100726.41;;;21.24;100.00
56160;BME280;42043;46.052;13.612;2022-08-03T00:57:49;100723.56;;;20.78;100.00
56160;BME280;42043;46.052;13.612;2022-08-03T01:00:21;100723.53;;;21.02;100.00
56160;BME280;42043;46.052;13.612;2022-08-03T01:02:48;100727.22;;;21.24;100.00
56160;BME280;42043;46.052;13.612;2022-08-03T01:05:14;100720.97;;;20.83;100.00
56160;BME280;42043;46.052;13.612;2022-08-03T01:10:40;100725.53;;;21.64;100.00
56160;BME280;42043;46.052;13.612;2022-08-03T01:18:26;100718.66;;;20.75;100.00
56160;BME280;42043;46.052;13.612;2022-08-03T01:20:55;100720.47;;;21.10;100.00
56160;BME280;42043;46.052;13.612;2022-08-03T01:23:29;100723.06;;;21.05;100.00
56160;BME280;42043;46.052;13.612;2022-08-03T01:31:40;100715.97;;;20.75;100.00
56160;BME280;42043;46.052;13.612;2022-08-03T01:34:11;100711.81;;;21.08;100.00
56160;BME280;42043;46.052;13.612;2022-08-03T01:36:43;100703.59;;;20.74;100.00
56160;BME280;42043;46.052;13.612;2022-08-03T01:39:14;100716.47;;;21.53;100.00
56160;BME280;42043;46.052;13.612;2022-08-03T01:41:49;100711.91;;;20.61;100.00
56160;BME280;42043;46.052;13.612;2022-08-03T01:44:19;100714.34;;;20.74;100.00
56160;BME280;42043;46.052;13.612;2022-08-03T01:46:47;100701.09;;;20.96;100.00
56160;BME280;42043;46.052;13.612;2022-08-03T01:49:16;100705.78;;;20.30;100.00
56160;BME280;42043;46.052;13.612;2022-08-03T01:51:46;100699.63;;;20.29;100.00
56160;BME280;42043;46.052;13.612;2022-08-03T01:54:13;100698.53;;;20.89;100.00
56160;BME280;42043;46.052;13.612;2022-08-03T01:56:41;100705.44;;;21.26;100.00
56160;BME280;42043;46.052;13.612;2022-08-03T01:59:09;100710.53;;;21.10;100.00
56160;BME280;42043;46.052;13.612;2022-08-03T02:01:36;100706.41;;;20.67;100.00
56160;BME280;42043;46.052;13.612;2022-08-03T02:04:05;100703.81;;;20.49;100.00
56160;BME280;42043;46.052;13.612;2022-08-03T02:06:33;100705.44;;;20.62;100.00
56160;BME280;42043;46.052;13.612;2022-08-03T02:09:01;100703.59;;;20.62;100.00
56160;BME280;42043;46.052;13.612;2022-08-03T02:11:29;100708.47;;;20.06;100.00
56160;BME280;42043;46.052;13.612;2022-08-03T02:13:57;100705.00;;;19.76;100.00
56160;BME280;42043;46.052;13.612;2022-08-03T02:16:26;100703.00;;;20.72;100.00
56160;BME280;42043;46.052;13.612;2022-08-03T02:18:54;100693.28;;;20.36;100.00
56160;BME280;42043;46.052;13.612;2022-08-03T02:21:21;100696.22;;;20.11;100.00
56160;BME280;42043;46.052;13.612;2022-08-03T02:23:48;100692.94;;;20.32;100.00
56160;BME280;42043;46.052;13.612;2022-08-03T02:26:16;100695.38;;;20.22;100.00
56160;BME280;42043;46.052;13.612;2022-08-03T02:28:46;100703.09;;;20.06;100.00
56160;BME280;42043;46.052;13.612;2022-08-03T02:31:22;100695.28;;;20.40;100.00
56160;BME280;42043;46.052;13.612;2022-08-03T02:33:53;100702.00;;;19.96;100.00
56160;BME280;42043;46.052;13.612;2022-08-03T02:36:34;100687.91;;;20.24;100.00
56160;BME280;42043;46.052;13.612;2022-08-03T02:39:02;100694.53;;;19.86;100.00
56160;BME280;42043;46.052;13.612;2022-08-03T02:41:34;100699.25;;;20.26;100.00
56160;BME280;42043;46.052;13.612;2022-08-03T02:44:08;100695.75;;;20.14;100.00
56160;BME280;42043;46.052;13.612;2022-08-03T02:46:37;100696.53;;;20.02;100.00
56160;BME280;42043;46.052;13.612;2022-08-03T02:49:05;100695.84;;;20.07;100.00
56160;BME280;42043;46.052;13.612;2022-08-03T02:51:32;100697.63;;;20.37;100.00
56160;BME280;42043;46.052;13.612;2022-08-03T02:54:01;100698.31;;;20.08;100.00
56160;BME280;42043;46.052;13.612;2022-08-03T02:56:28;100692.13;;;20.20;100.00
56160;BME280;42043;46.052;13.612;2022-08-03T02:58:57;100695.84;;;20.42;100.00
56160;BME280;42043;46.052;13.612;2022-08-03T03:01:26;100698.84;;;19.87;100.00
56160;BME280;42043;46.052;13.612;2022-08-03T03:03:54;100694.78;;;19.96;100.00
56160;BME280;42043;46.052;13.612;2022-08-03T03:06:22;100693.16;;;20.19;100.00
56160;BME280;42043;46.052;13.612;2022-08-03T03:08:50;100696.78;;;20.48;100.00
56160;BME280;42043;46.052;13.612;2022-08-03T03:11:18;100693.16;;;20.30;100.00
56160;BME280;42043;46.052;13.612;2022-08-03T03:13:47;100703.09;;;20.54;100.00
56160;BME280;42043;46.052;13.612;2022-08-03T03:16:14;100703.25;;;20.59;100.00
56160;BME280;42043;46.052;13.612;2022-08-03T03:18:43;100697.03;;;20.11;100.00
56160;BME280;42043;46.052;13.612;2022-08-03T03:21:10;100691.66;;;20.11;100.00
56160;BME280;42043;46.052;13.612;2022-08-03T03:23:38;100696.22;;;20.11;100.00
56160;BME280;42043;46.052;13.612;2022-08-03T03:26:06;100700.66;;;20.52;100.00
56160;BME280;42043;46.052;13.612;2022-08-03T03:28:33;100706.34;;;19.66;100.00
56160;BME280;42043;46.052;13.612;2022-08-03T03:31:03;100696.91;;;20.06;100.00
56160;BME280;42043;46.052;13.612;2022-08-03T03:33:32;100702.88;;;20.43;100.00
56160;BME280;42043;46.052;13.612;2022-08-03T03:35:58;100698.69;;;20.59;100.00
56160;BME280;42043;46.052;13.612;2022-08-03T03:38:25;100703.31;;;20.17;100.00
56160;BME280;42043;46.052;13.612;2022-08-03T03:40:51;100709.66;;;20.11;100.00
56160;BME280;42043;46.052;13.612;2022-08-03T03:43:18;100720.38;;;20.11;100.00
56160;BME280;42043;46.052;13.612;2022-08-03T03:45:45;100710.69;;;20.21;100.00
56160;BME280;42043;46.052;13.612;2022-08-03T03:48:12;100719.34;;;20.23;100.00
56160;BME280;42043;46.052;13.612;2022-08-03T03:50:38;100724.56;;;19.64;100.00
56160;BME280;42043;46.052;13.612;2022-08-03T03:53:08;100719.72;;;19.73;100.00
56160;BME280;42043;46.052;13.612;2022-08-03T03:55:36;100713.03;;;20.18;100.00
56160;BME280;42043;46.052;13.612;2022-08-03T03:58:03;100717.34;;;20.07;100.00
56160;BME280;42043;46.052;13.612;2022-08-03T04:00:30;100712.94;;;19.71;100.00
56160;BME280;42043;46.052;13.612;2022-08-03T04:02:56;100723.19;;;19.43;100.00
56160;BME280;42043;46.052;13.612;2022-08-03T04:05:22;100716.78;;;19.75;100.00
56160;BME280;42043;46.052;13.612;2022-08-03T04:08:10;100713.56;;;19.84;100.00
56160;BME280;42043;46.052;13.612;2022-08-03T04:11:13;100723.91;;;19.51;100.00
56160;BME280;42043;46.052;13.612;2022-08-03T04:13:46;100726.44;;;20.06;100.00
56160;BME280;42043;46.052;13.612;2022-08-03T04:16:17;100732.22;;;19.49;100.00
56160;BME280;42043;46.052;13.612;2022-08-03T04:18:46;100728.78;;;20.02;100.00
56160;BME280;42043;46.052;13.612;2022-08-03T04:21:16;100724.34;;;19.96;100.00
56160;BME280;42043;46.052;13.612;2022-08-03T04:23:46;100733.38;;;19.53;100.00
56160;BME280;42043;46.052;13.612;2022-08-03T04:26:17;100740.31;;;19.91;100.00
56160;BME280;42043;46.052;13.612;2022-08-03T04:28:44;100742.84;;;19.86;100.00
56160;BME280;42043;46.052;13.612;2022-08-03T04:31:12;100747.06;;;19.82;100.00
56160;BME280;42043;46.052;13.612;2022-08-03T04:33:40;100743.19;;;19.78;100.00
56160;BME280;42043;46.052;13.612;2022-08-03T04:36:10;100742.59;;;19.76;100.00
56160;BME280;42043;46.052;13.612;2022-08-03T04:38:46;100753.88;;;19.96;100.00
56160;BME280;42043;46.052;13.612;2022-08-03T04:41:18;100747.91;;;19.94;100.00
56160;BME280;42043;46.052;13.612;2022-08-03T04:43:47;100754.69;;;19.97;100.00
56160;BME280;42043;46.052;13.612;2022-08-03T04:46:14;100751.59;;;19.81;100.00
56160;BME280;42043;46.052;13.612;2022-08-03T04:48:40;100751.47;;;20.30;100.00
56160;BME280;42043;46.052;13.612;2022-08-03T04:51:07;100752.09;;;19.41;100.00
56160;BME280;42043;46.052;13.612;2022-08-03T04:53:36;100748.22;;;19.56;100.00
56160;BME280;42043;46.052;13.612;2022-08-03T04:56:06;100751.59;;;19.81;100.00
56160;BME280;42043;46.052;13.612;2022-08-03T04:58:32;100756.91;;;20.00;100.00
56160;BME280;42043;46.052;13.612;2022-08-03T05:00:58;100748.50;;;19.66;100.00
56160;BME280;42043;46.052;13.612;2022-08-03T05:03:24;100752.91;;;20.44;100.00
56160;BME280;42043;46.052;13.612;2022-08-03T05:05:51;100754.19;;;20.54;100.00
56160;BME280;42043;46.052;13.612;2022-08-03T05:08:17;100756.69;;;20.01;100.00
56160;BME280;42043;46.052;13.612;2022-08-03T05:10:43;100759.09;;;19.91;100.00
56160;BME280;42043;46.052;13.612;2022-08-03T05:13:09;100765.84;;;20.36;100.00
56160;BME280;42043;46.052;13.612;2022-08-03T05:15:38;100757.94;;;20.76;100.00
56160;BME280;42043;46.052;13.612;2022-08-03T05:18:04;100760.03;;;20.50;100.00
56160;BME280;42043;46.052;13.612;2022-08-03T05:20:31;100750.53;;;20.48;100.00
56160;BME280;42043;46.052;13.612;2022-08-03T05:22:57;100750.53;;;20.95;100.00
56160;BME280;42043;46.052;13.612;2022-08-03T05:25:24;100750.81;;;20.70;100.00
56160;BME280;42043;46.052;13.612;2022-08-03T05:27:51;100754.19;;;21.01;100.00
56160;BME280;42043;46.052;13.612;2022-08-03T05:30:17;100749.44;;;20.67;100.00
56160;BME280;42043;46.052;13.612;2022-08-03T05:32:43;100744.88;;;21.20;100.00
56160;BME280;42043;46.052;13.612;2022-08-03T05:35:09;100740.78;;;20.65;100.00
56160;BME280;42043;46.052;13.612;2022-08-03T05:37:35;100743.31;;;20.96;100.00
56160;BME280;42043;46.052;13.612;2022-08-03T05:40:02;100737.38;;;20.82;100.00
56160;BME280;42043;46.052;13.612;2022-08-03T05:42:29;100740.94;;;21.11;100.00
56160;BME280;42043;46.052;13.612;2022-08-03T05:44:55;100730.91;;;20.94;100.00
56160;BME280;42043;46.052;13.612;2022-08-03T05:47:21;100731.13;;;21.05;100.00
56160;BME280;42043;46.052;13.612;2022-08-03T05:49:48;100730.81;;;20.78;100.00
56160;BME280;42043;46.052;13.612;2022-08-03T05:52:14;100726.34;;;20.83;100.00
56160;BME280;42043;46.052;13.612;2022-08-03T05:54:41;100727.13;;;21.19;100.00
56160;BME280;42043;46.052;13.612;2022-08-03T05:57:08;100723.72;;;21.24;99.29
56160;BME280;42043;46.052;13.612;2022-08-03T05:59:37;100716.25;;;21.54;96.96
56160;BME280;42043;46.052;13.612;2022-08-03T06:02:07;100717.53;;;21.52;97.42
56160;BME280;42043;46.052;13.612;2022-08-03T06:04:36;100725.69;;;21.86;94.85
56160;BME280;42043;46.052;13.612;2022-08-03T06:07:02;100711.03;;;21.65;95.38
56160;BME280;42043;46.052;13.612;2022-08-03T06:09:32;100715.84;;;21.63;96.24
56160;BME280;42043;46.052;13.612;2022-08-03T06:11:59;100725.59;;;21.81;94.61
56160;BME280;42043;46.052;13.612;2022-08-03T06:14:26;100720.69;;;21.94;93.79
56160;BME280;42043;46.052;13.612;2022-08-03T06:16:52;100718.56;;;22.13;92.79
56160;BME280;42043;46.052;13.612;2022-08-03T06:19:19;100726.66;;;22.13;93.49
56160;BME280;42043;46.052;13.612;2022-08-03T06:21:46;100722.69;;;22.16;91.02
56160;BME280;42043;46.052;13.612;2022-08-03T06:24:13;100712.88;;;22.10;91.15
56160;BME280;42043;46.052;13.612;2022-08-03T06:26:39;100711.09;;;22.32;91.94
56160;BME280;42043;46.052;13.612;2022-08-03T06:29:05;100715.13;;;22.69;88.20
56160;BME280;42043;46.052;13.612;2022-08-03T06:31:31;100727.06;;;22.56;87.84
56160;BME280;42043;46.052;13.612;2022-08-03T06:33:57;100724.81;;;22.48;88.78
56160;BME280;42043;46.052;13.612;2022-08-03T06:36:23;100719.66;;;22.85;87.60
56160;BME280;42043;46.052;13.612;2022-08-03T06:38:50;100733.03;;;22.75;87.83
56160;BME280;42043;46.052;13.612;2022-08-03T06:41:16;100724.38;;;23.17;85.11
56160;BME280;42043;46.052;13.612;2022-08-03T06:43:42;100732.34;;;23.29;83.94
56160;BME280;42043;46.052;13.612;2022-08-03T06:46:08;100729.72;;;23.12;84.20
56160;BME280;42043;46.052;13.612;2022-08-03T06:48:35;100724.69;;;23.42;82.31
56160;BME280;42043;46.052;13.612;2022-08-03T06:51:01;100713.59;;;23.39;82.65
56160;BME280;42043;46.052;13.612;2022-08-03T06:53:27;100721.91;;;23.64;83.62
56160;BME280;42043;46.052;13.612;2022-08-03T06:55:53;100719.28;;;23.70;80.90
56160;BME280;42043;46.052;13.612;2022-08-03T06:58:19;100717.56;;;23.85;81.35
56160;BME280;42043;46.052;13.612;2022-08-03T07:00:45;100714.19;;;24.00;80.13
56160;BME280;42043;46.052;13.612;2022-08-03T07:03:11;100712.00;;;24.02;78.57
56160;BME280;42043;46.052;13.612;2022-08-03T07:05:37;100710.34;;;24.28;77.71
56160;BME280;42043;46.052;13.612;2022-08-03T07:08:03;100712.28;;;24.38;77.31
56160;BME280;42043;46.052;13.612;2022-08-03T07:10:29;100700.25;;;24.56;75.90
56160;BME280;42043;46.052;13.612;2022-08-03T07:12:55;100701.31;;;24.50;75.47
56160;BME280;42043;46.052;13.612;2022-08-03T07:15:21;100699.69;;;24.54;74.94
56160;BME280;42043;46.052;13.612;2022-08-03T07:17:47;100698.47;;;24.77;73.29
56160;BME280;42043;46.052;13.612;2022-08-03T07:20:14;100707.22;;;24.95;73.20
56160;BME280;42043;46.052;13.612;2022-08-03T07:22:42;100699.91;;;25.00;71.95
56160;BME280;42043;46.052;13.612;2022-08-03T07:25:08;100700.84;;;25.21;71.27
56160;BME280;42043;46.052;13.612;2022-08-03T07:27:35;100699.22;;;25.30;68.92
56160;BME280;42043;46.052;13.612;2022-08-03T07:30:04;100699.00;;;25.63;68.86
56160;BME280;42043;46.052;13.612;2022-08-03T07:32:31;100689.25;;;25.72;69.10
56160;BME280;42043;46.052;13.612;2022-08-03T07:34:57;100695.25;;;25.89;68.96
56160;BME280;42043;46.052;13.612;2022-08-03T07:37:23;100690.91;;;26.14;66.54
56160;BME280;42043;46.052;13.612;2022-08-03T07:39:49;100687.91;;;26.26;67.12
56160;BME280;42043;46.052;13.612;2022-08-03T07:42:15;100684.03;;;26.52;65.82
56160;BME280;42043;46.052;13.612;2022-08-03T07:44:41;100680.50;;;26.67;65.13
56160;BME280;42043;46.052;13.612;2022-08-03T07:47:07;100686.38;;;26.90;62.33
56160;BME280;42043;46.052;13.612;2022-08-03T07:49:33;100675.47;;;26.95;61.75
56160;BME280;42043;46.052;13.612;2022-08-03T07:51:59;100687.88;;;27.21;60.22
56160;BME280;42043;46.052;13.612;2022-08-03T07:54:43;100684.09;;;27.62;60.23
56160;BME280;42043;46.052;13.612;2022-08-03T07:57:09;100682.75;;;27.59;58.91
56160;BME280;42043;46.052;13.612;2022-08-03T07:59:35;100687.47;;;27.83;57.79
56160;BME280;42043;46.052;13.612;2022-08-03T08:02:05;100678.75;;;28.15;56.24
56160;BME280;42043;46.052;13.612;2022-08-03T08:04:31;100681.44;;;28.44;56.66
56160;BME280;42043;46.052;13.612;2022-08-03T08:06:58;100669.84;;;28.34;56.60
56160;BME280;42043;46.052;13.612;2022-08-03T08:09:24;100668.72;;;28.40;53.90
56160;BME280;42043;46.052;13.612;2022-08-03T08:11:50;100678.19;;;28.90;52.14
56160;BME280;42043;46.052;13.612;2022-08-03T08:14:16;100676.03;;;29.49;51.01
56160;BME280;42043;46.052;13.612;2022-08-03T08:16:42;100671.13;;;29.65;49.94
56160;BME280;42043;46.052;13.612;2022-08-03T08:19:08;100669.38;;;29.74;49.28
56160;BME280;42043;46.052;13.612;2022-08-03T08:21:34;100671.69;;;29.81;48.89
56160;BME280;42043;46.052;13.612;2022-08-03T08:24:00;100659.25;;;30.08;46.75
56160;BME280;42043;46.052;13.612;2022-08-03T08:26:26;100659.28;;;30.22;46.65
56160;BME280;42043;46.052;13.612;2022-08-03T08:28:52;100667.38;;;30.27;46.70
56160;BME280;42043;46.052;13.612;2022-08-03T08:31:18;100661.63;;;30.56;45.75
56160;BME280;42043;46.052;13.612;2022-08-03T08:33:44;100654.03;;;30.53;43.91
56160;BME280;42043;46.052;13.612;2022-08-03T08:36:10;100665.06;;;30.34;43.99
56160;BME280;42043;46.052;13.612;2022-08-03T08:38:36;100665.16;;;30.56;43.92
56160;BME280;42043;46.052;13.612;2022-08-03T08:41:03;100657.56;;;30.81;43.79
56160;BME280;42043;46.052;13.612;2022-08-03T08:43:29;100659.84;;;31.38;43.25
56160;BME280;42043;46.052;13.612;2022-08-03T08:45:56;100658.03;;;31.33;42.25
56160;BME280;42043;46.052;13.612;2022-08-03T08:48:24;100657.75;;;30.98;42.41
56160;BME280;42043;46.052;13.612;2022-08-03T08:50:53;100657.03;;;31.43;42.55
56160;BME280;42043;46.052;13.612;2022-08-03T08:53:20;100655.09;;;31.66;40.00
56160;BME280;42043;46.052;13.612;2022-08-03T08:55:48;100653.09;;;31.58;39.94
56160;BME280;42043;46.052;13.612;2022-08-03T08:58:15;100655.09;;;31.66;40.18
56160;BME280;42043;46.052;13.612;2022-08-03T09:00:44;100651.00;;;32.09;40.18
56160;BME280;42043;46.052;13.612;2022-08-03T09:03:11;100646.13;;;32.45;38.23
56160;BME280;42043;46.052;13.612;2022-08-03T09:05:37;100646.25;;;32.32;39.22
56160;BME280;42043;46.052;13.612;2022-08-03T09:08:04;100647.03;;;32.23;39.97
56160;BME280;42043;46.052;13.612;2022-08-03T09:10:30;100639.19;;;32.31;38.45
56160;BME280;42043;46.052;13.612;2022-08-03T09:12:56;100644.28;;;32.63;37.69
56160;BME280;42043;46.052;13.612;2022-08-03T09:15:24;100646.91;;;32.86;37.65
56160;BME280;42043;46.052;13.612;2022-08-03T09:17:54;100645.47;;;32.88;35.83
56160;BME280;42043;46.052;13.612;2022-08-03T09:20:22;100647.13;;;32.49;37.33
56160;BME280;42043;46.052;13.612;2022-08-03T09:23:03;100651.38;;;32.24;38.53
56160;BME280;42043;46.052;13.612;2022-08-03T09:28:05;100641.72;;;32.67;36.07
56160;BME280;42043;46.052;13.612;2022-08-03T09:30:32;100634.88;;;33.13;35.22
56160;BME280;42043;46.052;13.612;2022-08-03T09:33:02;100635.63;;;33.66;34.56
56160;BME280;42043;46.052;13.612;2022-08-03T09:35:28;100629.22;;;34.00;35.09
56160;BME280;42043;46.052;13.612;2022-08-03T09:38:17;100633.88;;;33.44;34.59
56160;BME280;42043;46.052;13.612;2022-08-03T09:40:45;100625.84;;;33.94;33.30
56160;BME280;42043;46.052;13.612;2022-08-03T09:43:11;100626.56;;;33.74;32.06
56160;BME280;42043;46.052;13.612;2022-08-03T09:45:38;100622.88;;;34.17;31.55
56160;BME280;42043;46.052;13.612;2022-08-03T09:48:24;100622.78;;;34.34;31.29
56160;BME280;42043;46.052;13.612;2022-08-03T09:51:08;100618.28;;;33.91;30.74
56160;BME280;42043;46.052;13.612;2022-08-03T09:53:44;100620.31;;;34.03;30.21
56160;BME280;42043;46.052;13.612;2022-08-03T09:56:10;100619.94;;;35.03;28.92
56160;BME280;42043;46.052;13.612;2022-08-03T09:58:46;100615.91;;;33.81;32.84
56160;BME280;42043;46.052;13.612;2022-08-03T10:01:12;100622.50;;;34.27;33.90
56160;BME280;42043;46.052;13.612;2022-08-03T10:03:39;100599.69;;;33.97;32.22
56160;BME280;42043;46.052;13.612;2022-08-03T10:06:19;100610.03;;;34.30;33.00
56160;BME280;42043;46.052;13.612;2022-08-03T10:08:45;100602.78;;;34.55;31.16
56160;BME280;42043;46.052;13.612;2022-08-03T10:11:11;100611.34;;;34.83;31.45
56160;BME280;42043;46.052;13.612;2022-08-03T10:13:53;100594.66;;;34.67;30.28
56160;BME280;42043;46.052;13.612;2022-08-03T10:16:20;100592.44;;;35.03;28.81
56160;BME280;42043;46.052;13.612;2022-08-03T10:18:45;100590.28;;;35.75;29.46
56160;BME280;42043;46.052;13.612;2022-08-03T10:21:15;100583.63;;;35.64;28.54
56160;BME280;42043;46.052;13.612;2022-08-03T10:23:42;100578.88;;;35.52;29.67
56160;BME280;42043;46.052;13.612;2022-08-03T10:26:12;100572.78;;;35.46;28.91
56160;BME280;42043;46.052;13.612;2022-08-03T10:28:47;100576.97;;;35.65;27.76
56160;BME280;42043;46.052;13.612;2022-08-03T10:31:15;100563.69;;;35.91;27.15
56160;BME280;42043;46.052;13.612;2022-08-03T10:33:43;100564.44;;;35.22;28.25
56160;BME280;42043;46.052;13.612;2022-08-03T10:36:12;100571.94;;;36.28;27.52
56160;BME280;42043;46.052;13.612;2022-08-03T10:38:49;100572.38;;;36.67;27.22
56160;BME280;42043;46.052;13.612;2022-08-03T10:41:22;100567.09;;;36.62;26.75
56160;BME280;42043;46.052;13.612;2022-08-03T10:44:07;100559.78;;;36.82;26.94
56160;BME280;42043;46.052;13.612;2022-08-03T10:46:40;100562.69;;;36.73;27.73
56160;BME280;42043;46.052;13.612;2022-08-03T10:49:13;100565.94;;;36.63;27.02
56160;BME280;42043;46.052;13.612;2022-08-03T10:51:45;100557.56;;;36.87;26.27
56160;BME280;42043;46.052;13.612;2022-08-03T10:57:05;100546.31;;;37.21;26.06
56160;BME280;42043;46.052;13.612;2022-08-03T10:59:56;100541.66;;;37.53;25.69
56160;BME280;42043;46.052;13.612;2022-08-03T11:05:29;100535.16;;;36.89;27.34
56160;BME280;42043;46.052;13.612;2022-08-03T11:08:28;100536.47;;;37.52;25.69
56160;BME280;42043;46.052;13.612;2022-08-03T11:10:57;100531.13;;;38.06;24.93
56160;BME280;42043;46.052;13.612;2022-08-03T11:13:25;100528.00;;;37.92;26.46
56160;BME280;42043;46.052;13.612;2022-08-03T11:15:55;100529.06;;;38.03;24.58
56160;BME280;42043;46.052;13.612;2022-08-03T11:18:22;100535.44;;;38.59;24.81
56160;BME280;42043;46.052;13.612;2022-08-03T11:23:42;100530.41;;;39.26;24.67
56160;BME280;42043;46.052;13.612;2022-08-03T11:26:19;100513.44;;;39.28;23.63
56160;BME280;42043;46.052;13.612;2022-08-03T11:28:47;100524.50;;;39.28;23.42
56160;BME280;42043;46.052;13.612;2022-08-03T11:34:08;100504.78;;;38.87;23.63
56160;BME280;42043;46.052;13.612;2022-08-03T11:39:42;100518.09;;;39.01;25.19
56160;BME280;42043;46.052;13.612;2022-08-03T11:44:59;100501.72;;;38.92;23.70
56160;BME280;42043;46.052;13.612;2022-08-03T11:47:27;100493.25;;;39.04;23.35
56160;BME280;42043;46.052;13.612;2022-08-03T11:49:56;100497.38;;;39.14;23.55
56160;BME280;42043;46.052;13.612;2022-08-03T11:52:34;100482.88;;;39.93;22.87
56160;BME280;42043;46.052;13.612;2022-08-03T11:55:14;100479.22;;;39.16;24.32
56160;BME280;42043;46.052;13.612;2022-08-03T11:57:47;100485.41;;;39.52;22.07
56160;BME280;42043;46.052;13.612;2022-08-03T12:00:35;100481.56;;;41.15;21.24
56160;BME280;42043;46.052;13.612;2022-08-03T12:05:57;100479.47;;;41.50;20.77
56160;BME280;42043;46.052;13.612;2022-08-03T12:08:32;100481.19;;;40.76;22.26
56160;BME280;42043;46.052;13.612;2022-08-03T12:14:27;100467.09;;;40.95;21.01
56160;BME280;42043;46.052;13.612;2022-08-03T12:16:54;100464.97;;;38.91;23.38
56160;BME280;42043;46.052;13.612;2022-08-03T12:19:23;100467.28;;;36.84;25.88
56160;BME280;42043;46.052;13.612;2022-08-03T12:21:49;100458.78;;;38.40;23.84
56160;BME280;42043;46.052;13.612;2022-08-03T12:24:16;100464.50;;;36.56;26.65
56160;BME280;42043;46.052;13.612;2022-08-03T12:26:47;100467.84;;;36.50;26.89
56160;BME280;42043;46.052;13.612;2022-08-03T12:29:17;100465.16;;;36.37;27.33
56160;BME280;42043;46.052;13.612;2022-08-03T12:31:43;100460.13;;;36.27;26.89
56160;BME280;42043;46.052;13.612;2022-08-03T12:34:10;100465.66;;;37.27;25.64
56160;BME280;42043;46.052;13.612;2022-08-03T12:36:50;100468.25;;;39.70;24.09
56160;BME280;42043;46.052;13.612;2022-08-03T12:39:22;100468.38;;;40.34;23.38
56160;BME280;42043;46.052;13.612;2022-08-03T12:41:52;100464.09;;;40.74;22.51
56160;BME280;42043;46.052;13.612;2022-08-03T12:44:33;100456.28;;;39.62;22.89
56160;BME280;42043;46.052;13.612;2022-08-03T12:47:01;100454.84;;;39.22;23.37
56160;BME280;42043;46.052;13.612;2022-08-03T12:49:27;100442.69;;;37.39;25.73
56160;BME280;42043;46.052;13.612;2022-08-03T12:51:56;100454.63;;;36.27;26.53
56160;BME280;42043;46.052;13.612;2022-08-03T12:54:25;100457.69;;;35.73;28.76
56160;BME280;42043;46.052;13.612;2022-08-03T12:57:16;100457.41;;;35.29;27.33
56160;BME280;42043;46.052;13.612;2022-08-03T12:59:43;100447.97;;;35.17;28.48
56160;BME280;42043;46.052;13.612;2022-08-03T13:17:55;100455.09;;;37.01;25.73
56160;BME280;42043;46.052;13.612;2022-08-03T13:20:22;100436.28;;;36.59;27.08
56160;BME280;42043;46.052;13.612;2022-08-03T13:22:48;100446.78;;;38.71;24.75
56160;BME280;42043;46.052;13.612;2022-08-03T13:25:15;100448.56;;;40.32;22.66
56160;BME280;42043;46.052;13.612;2022-08-03T13:27:41;100444.59;;;42.18;20.98
56160;BME280;42043;46.052;13.612;2022-08-03T13:30:08;100441.66;;;43.24;19.77
56160;BME280;42043;46.052;13.612;2022-08-03T13:32:35;100436.56;;;41.99;20.95
56160;BME280;42043;46.052;13.612;2022-08-03T13:35:01;100434.06;;;41.79;21.72
56160;BME280;42043;46.052;13.612;2022-08-03T13:37:28;100443.09;;;41.14;21.67
56160;BME280;42043;46.052;13.612;2022-08-03T13:39:54;100434.28;;;39.23;23.38